sensor_id;sensor_type;location;lat;lon;timestamp;pressure;altitude;pressure_sealevel;temperature;humidity
47983;BME280;33751;50.816;-1.214;2023-03-14T00:01:37;98708.83;;;24.46;100.00
47983;BME280;33751;50.816;-1.214;2023-03-14T00:04:04;98712.82;;;24.65;100.00
47983;BME280;33751;50.816;-1.214;2023-03-14T00:06:31;98713.11;;;24.58;100.00
47983;BME280;33751;50.816;-1.214;2023-03-14T00:08:57;98713.51;;;24.67;100.00
47983;BME280;33751;50.816;-1.214;2023-03-14T00:11:24;98710.32;;;24.93;100.00
47983;BME280;33751;50.816;-1.214;2023-03-14T00:13:51;98716.30;;;24.59;100.00
47983;BME280;33751;50.816;-1.214;2023-03-14T00:16:19;98718.11;;;24.64;100.00
47983;BME280;33751;50.816;-1.214;2023-03-14T00:18:46;98720.47;;;24.84;100.00
47983;BME280;33751;50.816;-1.214;2023-03-14T00:21:13;98725.14;;;24.66;100.00
47983;BME280;33751;50.816;-1.214;2023-03-14T00:23:41;98724.58;;;24.64;100.00
47983;BME280;33751;50.816;-1.214;2023-03-14T00:26:11;98730.19;;;24.62;100.00
47983;BME280;33751;50.816;-1.214;2023-03-14T00:28:40;98735.13;;;24.37;100.00
47983;BME280;33751;50.816;-1.214;2023-03-14T00:31:08;98737.32;;;24.51;100.00
47983;BME280;33751;50.816;-1.214;2023-03-14T00:33:35;98736.99;;;24.34;100.00
47983;BME280;33751;50.816;-1.214;2023-03-14T00:36:05;98736.40;;;24.00;100.00
47983;BME280;33751;50.816;-1.214;2023-03-14T00:38:33;98738.73;;;24.61;100.00
47983;BME280;33751;50.816;-1.214;2023-03-14T00:41:03;98737.42;;;24.54;100.00
47983;BME280;33751;50.816;-1.214;2023-03-14T00:43:30;98743.33;;;24.36;100.00
47983;BME280;33751;50.816;-1.214;2023-03-14T00:45:57;98747.50;;;23.96;100.00
47983;BME280;33751;50.816;-1.214;2023-03-14T00:48:24;98754.70;;;24.04;100.00
47983;BME280;33751;50.816;-1.214;2023-03-14T00:50:51;98756.24;;;24.43;100.00
47983;BME280;33751;50.816;-1.214;2023-03-14T00:53:18;98765.43;;;23.89;100.00
47983;BME280;33751;50.816;-1.214;2023-03-14T00:55:45;98774.97;;;23.90;100.00
47983;BME280;33751;50.816;-1.214;2023-03-14T00:58:15;98791.91;;;24.11;100.00
47983;BME280;33751;50.816;-1.214;2023-03-14T01:00:42;98802.27;;;24.29;100.00
47983;BME280;33751;50.816;-1.214;2023-03-14T01:03:11;98807.95;;;24.08;100.00
47983;BME280;33751;50.816;-1.214;2023-03-14T01:05:38;98825.87;;;24.20;100.00
47983;BME280;33751;50.816;-1.214;2023-03-14T01:08:05;98848.53;;;24.25;100.00
47983;BME280;33751;50.816;-1.214;2023-03-14T01:10:32;98861.19;;;24.39;100.00
47983;BME280;33751;50.816;-1.214;2023-03-14T01:12:59;98877.30;;;24.40;100.00
47983;BME280;33751;50.816;-1.214;2023-03-14T01:15:25;98896.12;;;24.39;100.00
47983;BME280;33751;50.816;-1.214;2023-03-14T01:17:52;98911.89;;;24.36;100.00
47983;BME280;33751;50.816;-1.214;2023-03-14T01:20:19;98921.00;;;24.42;100.00
47983;BME280;33751;50.816;-1.214;2023-03-14T01:22:46;98937.83;;;24.22;100.00
47983;BME280;33751;50.816;-1.214;2023-03-14T01:25:15;98942.14;;;24.41;100.00
47983;BME280;33751;50.816;-1.214;2023-03-14T01:27:43;98955.54;;;23.71;100.00
47983;BME280;33751;50.816;-1.214;2023-03-14T01:30:12;98972.53;;;23.68;100.00
47983;BME280;33751;50.816;-1.214;2023-03-14T01:32:39;98992.97;;;24.20;100.00
47983;BME280;33751;50.816;-1.214;2023-03-14T01:35:07;99006.64;;;24.20;100.00
47983;BME280;33751;50.816;-1.214;2023-03-14T01:37:34;99016.67;;;23.76;100.00
47983;BME280;33751;50.816;-1.214;2023-03-14T01:40:01;99028.29;;;24.03;100.00
47983;BME280;33751;50.816;-1.214;2023-03-14T01:42:28;99037.40;;;24.19;100.00
47983;BME280;33751;50.816;-1.214;2023-03-14T01:44:57;99051.70;;;24.17;100.00
47983;BME280;33751;50.816;-1.214;2023-03-14T01:47:24;99053.81;;;24.20;100.00
47983;BME280;33751;50.816;-1.214;2023-03-14T01:49:55;99063.06;;;24.10;100.00
47983;BME280;33751;50.816;-1.214;2023-03-14T01:52:28;99079.42;;;24.31;100.00
47983;BME280;33751;50.816;-1.214;2023-03-14T01:54:58;99089.63;;;24.18;100.00
47983;BME280;33751;50.816;-1.214;2023-03-14T01:57:30;99099.86;;;23.76;100.00
47983;BME280;33751;50.816;-1.214;2023-03-14T02:00:03;99113.69;;;23.69;100.00
47983;BME280;33751;50.816;-1.214;2023-03-14T02:02:32;99122.87;;;23.91;100.00
47983;BME280;33751;50.816;-1.214;2023-03-14T02:04:59;99132.14;;;23.81;100.00
47983;BME280;33751;50.816;-1.214;2023-03-14T02:07:32;99133.67;;;24.01;100.00
47983;BME280;33751;50.816;-1.214;2023-03-14T02:10:02;99152.45;;;23.86;100.00
47983;BME280;33751;50.816;-1.214;2023-03-14T02:12:30;99167.04;;;23.62;100.00
47983;BME280;33751;50.816;-1.214;2023-03-14T02:14:57;99168.59;;;24.04;100.00
47983;BME280;33751;50.816;-1.214;2023-03-14T02:17:24;99176.16;;;24.01;100.00
47983;BME280;33751;50.816;-1.214;2023-03-14T02:20:10;99193.42;;;23.59;100.00
47983;BME280;33751;50.816;-1.214;2023-03-14T02:22:40;99201.94;;;23.83;100.00
47983;BME280;33751;50.816;-1.214;2023-03-14T02:25:12;99216.86;;;24.42;100.00
47983;BME280;33751;50.816;-1.214;2023-03-14T02:27:41;99219.93;;;23.95;100.00
47983;BME280;33751;50.816;-1.214;2023-03-14T02:30:12;99224.43;;;23.89;100.00
47983;BME280;33751;50.816;-1.214;2023-03-14T02:32:43;99228.67;;;24.21;100.00
47983;BME280;33751;50.816;-1.214;2023-03-14T02:35:15;99237.04;;;23.93;100.00
47983;BME280;33751;50.816;-1.214;2023-03-14T02:37:47;99249.19;;;23.54;100.00
47983;BME280;33751;50.816;-1.214;2023-03-14T02:40:15;99269.14;;;23.47;100.00
47983;BME280;33751;50.816;-1.214;2023-03-14T02:42:43;99273.32;;;23.71;100.00
47983;BME280;33751;50.816;-1.214;2023-03-14T02:45:36;99282.34;;;24.02;100.00
47983;BME280;33751;50.816;-1.214;2023-03-14T02:48:07;99292.37;;;23.49;100.00
47983;BME280;33751;50.816;-1.214;2023-03-14T02:50:35;99296.35;;;23.67;100.00
47983;BME280;33751;50.816;-1.214;2023-03-14T02:53:02;99307.53;;;23.57;100.00
47983;BME280;33751;50.816;-1.214;2023-03-14T02:55:29;99315.74;;;23.72;100.00
47983;BME280;33751;50.816;-1.214;2023-03-14T02:57:56;99316.89;;;23.69;100.00
47983;BME280;33751;50.816;-1.214;2023-03-14T03:00:23;99324.16;;;24.17;100.00
47983;BME280;33751;50.816;-1.214;2023-03-14T03:02:50;99332.19;;;23.29;100.00
47983;BME280;33751;50.816;-1.214;2023-03-14T03:05:17;99340.25;;;23.59;100.00
47983;BME280;33751;50.816;-1.214;2023-03-14T03:07:44;99346.95;;;23.22;100.00
47983;BME280;33751;50.816;-1.214;2023-03-14T03:10:11;99354.40;;;23.28;100.00
47983;BME280;33751;50.816;-1.214;2023-03-14T03:12:38;99353.90;;;23.78;100.00
47983;BME280;33751;50.816;-1.214;2023-03-14T03:15:05;99373.64;;;23.26;100.00
47983;BME280;33751;50.816;-1.214;2023-03-14T03:17:33;99378.14;;;23.90;100.00
47983;BME280;33751;50.816;-1.214;2023-03-14T03:20:00;99386.07;;;23.89;100.00
47983;BME280;33751;50.816;-1.214;2023-03-14T03:22:26;99391.16;;;23.55;100.00
47983;BME280;33751;50.816;-1.214;2023-03-14T03:24:53;99404.24;;;23.69;100.00
47983;BME280;33751;50.816;-1.214;2023-03-14T03:27:20;99412.86;;;23.24;100.00
47983;BME280;33751;50.816;-1.214;2023-03-14T03:29:47;99424.07;;;23.50;100.00
47983;BME280;33751;50.816;-1.214;2023-03-14T03:32:14;99435.99;;;23.43;100.00
47983;BME280;33751;50.816;-1.214;2023-03-14T03:34:40;99446.97;;;23.12;100.00
47983;BME280;33751;50.816;-1.214;2023-03-14T03:37:07;99452.16;;;23.48;100.00
47983;BME280;33751;50.816;-1.214;2023-03-14T03:39:33;99460.92;;;23.02;100.00
47983;BME280;33751;50.816;-1.214;2023-03-14T03:42:00;99473.65;;;23.14;100.00
47983;BME280;33751;50.816;-1.214;2023-03-14T03:44:26;99478.40;;;23.31;100.00
47983;BME280;33751;50.816;-1.214;2023-03-14T03:46:53;99489.93;;;23.17;100.00
47983;BME280;33751;50.816;-1.214;2023-03-14T03:49:19;99493.96;;;23.28;100.00
47983;BME280;33751;50.816;-1.214;2023-03-14T03:51:45;99501.70;;;23.04;100.00
47983;BME280;33751;50.816;-1.214;2023-03-14T03:54:12;99507.35;;;23.32;100.00
47983;BME280;33751;50.816;-1.214;2023-03-14T03:56:39;99506.81;;;23.53;100.00
47983;BME280;33751;50.816;-1.214;2023-03-14T03:59:06;99510.10;;;23.27;100.00
47983;BME280;33751;50.816;-1.214;2023-03-14T04:01:32;99514.40;;;23.44;100.00
47983;BME280;33751;50.816;-1.214;2023-03-14T04:03:59;99512.99;;;23.38;100.00
47983;BME280;33751;50.816;-1.214;2023-03-14T04:06:25;99514.06;;;23.12;100.00
47983;BME280;33751;50.816;-1.214;2023-03-14T04:08:53;99519.21;;;23.41;100.00
47983;BME280;33751;50.816;-1.214;2023-03-14T04:11:20;99524.96;;;23.18;100.00
47983;BME280;33751;50.816;-1.214;2023-03-14T04:13:47;99530.02;;;23.16;100.00
47983;BME280;33751;50.816;-1.214;2023-03-14T04:16:17;99533.65;;;22.65;100.00
47983;BME280;33751;50.816;-1.214;2023-03-14T04:18:44;99543.35;;;22.99;100.00
47983;BME280;33751;50.816;-1.214;2023-03-14T04:21:11;99543.43;;;23.07;100.00
47983;BME280;33751;50.816;-1.214;2023-03-14T04:23:37;99551.87;;;22.78;100.00
47983;BME280;33751;50.816;-1.214;2023-03-14T04:26:04;99574.94;;;22.50;100.00
47983;BME280;33751;50.816;-1.214;2023-03-14T04:28:31;99572.36;;;22.86;100.00
47983;BME280;33751;50.816;-1.214;2023-03-14T04:30:59;99573.50;;;22.55;100.00
47983;BME280;33751;50.816;-1.214;2023-03-14T04:33:33;99592.37;;;22.83;100.00
47983;BME280;33751;50.816;-1.214;2023-03-14T04:36:00;99595.89;;;22.69;100.00
47983;BME280;33751;50.816;-1.214;2023-03-14T04:38:27;99597.19;;;22.73;100.00
47983;BME280;33751;50.816;-1.214;2023-03-14T04:40:54;99612.60;;;22.85;100.00
47983;BME280;33751;50.816;-1.214;2023-03-14T04:43:21;99613.50;;;23.00;100.00
47983;BME280;33751;50.816;-1.214;2023-03-14T04:45:47;99615.06;;;22.74;100.00
47983;BME280;33751;50.816;-1.214;2023-03-14T04:48:15;99628.96;;;22.96;100.00
47983;BME280;33751;50.816;-1.214;2023-03-14T04:50:41;99630.96;;;22.97;100.00
47983;BME280;33751;50.816;-1.214;2023-03-14T04:53:07;99629.69;;;23.00;100.00
47983;BME280;33751;50.816;-1.214;2023-03-14T04:55:34;99637.95;;;23.02;100.00
47983;BME280;33751;50.816;-1.214;2023-03-14T04:58:00;99645.02;;;22.91;100.00
47983;BME280;33751;50.816;-1.214;2023-03-14T05:00:27;99640.95;;;22.87;100.00
47983;BME280;33751;50.816;-1.214;2023-03-14T05:02:54;99644.31;;;22.80;100.00
47983;BME280;33751;50.816;-1.214;2023-03-14T05:05:21;99655.17;;;22.73;100.00
47983;BME280;33751;50.816;-1.214;2023-03-14T05:07:48;99655.99;;;22.46;100.00
47983;BME280;33751;50.816;-1.214;2023-03-14T05:10:15;99650.29;;;22.45;100.00
47983;BME280;33751;50.816;-1.214;2023-03-14T05:12:42;99664.68;;;22.39;100.00
47983;BME280;33751;50.816;-1.214;2023-03-14T05:15:09;99674.00;;;22.31;100.00
47983;BME280;33751;50.816;-1.214;2023-03-14T05:17:36;99679.20;;;22.08;100.00
47983;BME280;33751;50.816;-1.214;2023-03-14T05:20:03;99683.80;;;22.32;100.00
47983;BME280;33751;50.816;-1.214;2023-03-14T05:22:30;99693.09;;;22.27;100.00
47983;BME280;33751;50.816;-1.214;2023-03-14T05:24:56;99693.37;;;22.23;100.00
47983;BME280;33751;50.816;-1.214;2023-03-14T05:27:23;99694.41;;;22.24;100.00
47983;BME280;33751;50.816;-1.214;2023-03-14T05:29:49;99701.59;;;22.27;100.00
47983;BME280;33751;50.816;-1.214;2023-03-14T05:32:16;99709.58;;;22.22;100.00
47983;BME280;33751;50.816;-1.214;2023-03-14T05:34:42;99710.03;;;22.25;100.00
47983;BME280;33751;50.816;-1.214;2023-03-14T05:37:09;99719.44;;;22.51;100.00
47983;BME280;33751;50.816;-1.214;2023-03-14T05:39:35;99728.46;;;22.69;100.00
47983;BME280;33751;50.816;-1.214;2023-03-14T05:42:02;99729.98;;;22.23;100.00
47983;BME280;33751;50.816;-1.214;2023-03-14T05:44:29;99733.87;;;22.19;100.00
47983;BME280;33751;50.816;-1.214;2023-03-14T05:46:55;99745.03;;;21.96;100.00
47983;BME280;33751;50.816;-1.214;2023-03-14T05:49:22;99746.81;;;22.19;100.00
47983;BME280;33751;50.816;-1.214;2023-03-14T05:51:49;99753.17;;;22.20;100.00
47983;BME280;33751;50.816;-1.214;2023-03-14T05:54:16;99758.39;;;22.40;100.00
47983;BME280;33751;50.816;-1.214;2023-03-14T05:56:43;99761.52;;;22.95;100.00
47983;BME280;33751;50.816;-1.214;2023-03-14T05:59:09;99761.30;;;22.53;100.00
47983;BME280;33751;50.816;-1.214;2023-03-14T06:01:36;99763.21;;;22.50;100.00
47983;BME280;33751;50.816;-1.214;2023-03-14T06:04:02;99766.91;;;22.46;100.00
47983;BME280;33751;50.816;-1.214;2023-03-14T06:06:29;99774.27;;;22.38;100.00
47983;BME280;33751;50.816;-1.214;2023-03-14T06:08:55;99779.61;;;22.34;100.00
47983;BME280;33751;50.816;-1.214;2023-03-14T06:11:22;99785.56;;;22.33;100.00
47983;BME280;33751;50.816;-1.214;2023-03-14T06:13:48;99790.63;;;22.33;100.00
47983;BME280;33751;50.816;-1.214;2023-03-14T06:16:15;99793.32;;;22.54;100.00
47983;BME280;33751;50.816;-1.214;2023-03-14T06:18:41;99795.38;;;22.30;100.00
47983;BME280;33751;50.816;-1.214;2023-03-14T06:21:08;99801.25;;;22.67;100.00
47983;BME280;33751;50.816;-1.214;2023-03-14T06:23:35;99814.50;;;22.46;100.00
47983;BME280;33751;50.816;-1.214;2023-03-14T06:26:03;99828.64;;;22.07;100.00
47983;BME280;33751;50.816;-1.214;2023-03-14T06:28:30;99836.46;;;22.21;100.00
47983;BME280;33751;50.816;-1.214;2023-03-14T06:30:58;99841.96;;;22.17;100.00
47983;BME280;33751;50.816;-1.214;2023-03-14T06:33:25;99846.08;;;22.41;100.00
47983;BME280;33751;50.816;-1.214;2023-03-14T06:35:53;99844.88;;;22.22;100.00
47983;BME280;33751;50.816;-1.214;2023-03-14T06:38:20;99845.59;;;22.44;100.00
47983;BME280;33751;50.816;-1.214;2023-03-14T06:40:47;99853.98;;;22.22;100.00
47983;BME280;33751;50.816;-1.214;2023-03-14T06:43:14;99866.26;;;22.39;100.00
47983;BME280;33751;50.816;-1.214;2023-03-14T06:45:40;99870.60;;;22.83;100.00
47983;BME280;33751;50.816;-1.214;2023-03-14T06:48:07;99877.56;;;22.66;100.00
47983;BME280;33751;50.816;-1.214;2023-03-14T06:50:33;99884.07;;;22.72;100.00
47983;BME280;33751;50.816;-1.214;2023-03-14T06:53:00;99893.48;;;22.60;100.00
47983;BME280;33751;50.816;-1.214;2023-03-14T06:55:27;99895.86;;;22.70;100.00
47983;BME280;33751;50.816;-1.214;2023-03-14T06:57:54;99902.31;;;22.99;100.00
47983;BME280;33751;50.816;-1.214;2023-03-14T07:00:21;99913.31;;;23.10;100.00
47983;BME280;33751;50.816;-1.214;2023-03-14T07:02:48;99922.28;;;22.98;100.00
47983;BME280;33751;50.816;-1.214;2023-03-14T07:05:15;99928.30;;;23.33;100.00
47983;BME280;33751;50.816;-1.214;2023-03-14T07:07:42;99937.01;;;23.28;100.00
47983;BME280;33751;50.816;-1.214;2023-03-14T07:10:10;99945.77;;;23.75;100.00
47983;BME280;33751;50.816;-1.214;2023-03-14T07:12:37;99938.55;;;23.64;100.00
47983;BME280;33751;50.816;-1.214;2023-03-14T07:15:04;99947.39;;;23.69;100.00
47983;BME280;33751;50.816;-1.214;2023-03-14T07:17:31;99957.50;;;23.72;99.88
47983;BME280;33751;50.816;-1.214;2023-03-14T07:19:57;99961.20;;;24.30;99.67
47983;BME280;33751;50.816;-1.214;2023-03-14T07:22:24;99965.83;;;23.95;99.91
47983;BME280;33751;50.816;-1.214;2023-03-14T07:24:51;99967.45;;;23.99;99.23
47983;BME280;33751;50.816;-1.214;2023-03-14T07:27:18;99969.94;;;24.31;98.91
47983;BME280;33751;50.816;-1.214;2023-03-14T07:29:44;99978.99;;;24.24;99.09
47983;BME280;33751;50.816;-1.214;2023-03-14T07:32:11;99989.95;;;24.30;98.94
47983;BME280;33751;50.816;-1.214;2023-03-14T07:34:37;99997.63;;;24.42;98.54
47983;BME280;33751;50.816;-1.214;2023-03-14T07:37:04;100003.28;;;24.46;98.39
47983;BME280;33751;50.816;-1.214;2023-03-14T07:39:31;100009.88;;;24.54;98.16
47983;BME280;33751;50.816;-1.214;2023-03-14T07:41:57;100019.21;;;24.58;98.00
47983;BME280;33751;50.816;-1.214;2023-03-14T07:44:24;100025.94;;;24.87;97.10
47983;BME280;33751;50.816;-1.214;2023-03-14T07:46:50;100026.75;;;26.82;91.13
47983;BME280;33751;50.816;-1.214;2023-03-14T07:49:17;100020.67;;;27.09;88.40
47983;BME280;33751;50.816;-1.214;2023-03-14T07:51:43;100030.60;;;26.50;88.69
47983;BME280;33751;50.816;-1.214;2023-03-14T07:54:10;100039.85;;;27.49;91.63
47983;BME280;33751;50.816;-1.214;2023-03-14T07:56:37;100052.73;;;28.04;90.57
47983;BME280;33751;50.816;-1.214;2023-03-14T07:59:03;100059.47;;;28.38;89.21
47983;BME280;33751;50.816;-1.214;2023-03-14T08:01:30;100058.71;;;29.02;86.70
47983;BME280;33751;50.816;-1.214;2023-03-14T08:03:57;100056.16;;;29.20;85.63
47983;BME280;33751;50.816;-1.214;2023-03-14T08:06:23;100062.89;;;29.66;84.40
47983;BME280;33751;50.816;-1.214;2023-03-14T08:08:50;100072.04;;;30.17;83.22
47983;BME280;33751;50.816;-1.214;2023-03-14T08:11:17;100080.48;;;30.04;82.47
47983;BME280;33751;50.816;-1.214;2023-03-14T08:13:44;100079.15;;;30.98;81.45
47983;BME280;33751;50.816;-1.214;2023-03-14T08:16:11;100086.85;;;30.70;80.84
47983;BME280;33751;50.816;-1.214;2023-03-14T08:18:37;100099.13;;;31.02;80.19
47983;BME280;33751;50.816;-1.214;2023-03-14T08:21:04;100097.38;;;31.40;79.88
47983;BME280;33751;50.816;-1.214;2023-03-14T08:23:31;100104.30;;;31.48;79.42
47983;BME280;33751;50.816;-1.214;2023-03-14T08:25:58;100102.10;;;31.58;77.97
47983;BME280;33751;50.816;-1.214;2023-03-14T08:28:25;100114.37;;;31.45;76.46
47983;BME280;33751;50.816;-1.214;2023-03-14T08:30:55;100125.33;;;31.07;73.67
47983;BME280;33751;50.816;-1.214;2023-03-14T08:33:21;100135.64;;;31.47;69.42
47983;BME280;33751;50.816;-1.214;2023-03-14T08:35:48;100139.65;;;31.05;70.61
47983;BME280;33751;50.816;-1.214;2023-03-14T08:38:14;100142.88;;;31.03;69.05
47983;BME280;33751;50.816;-1.214;2023-03-14T08:40:41;100168.35;;;30.08;69.32
47983;BME280;33751;50.816;-1.214;2023-03-14T08:43:08;100173.65;;;29.31;68.69
47983;BME280;33751;50.816;-1.214;2023-03-14T08:45:36;100182.23;;;28.05;70.80
47983;BME280;33751;50.816;-1.214;2023-03-14T08:48:03;100186.34;;;27.31;71.97
47983;BME280;33751;50.816;-1.214;2023-03-14T08:50:30;100190.23;;;27.13;72.44
47983;BME280;33751;50.816;-1.214;2023-03-14T08:52:57;100198.18;;;26.72;72.71
47983;BME280;33751;50.816;-1.214;2023-03-14T08:55:23;100210.61;;;26.33;74.09
47983;BME280;33751;50.816;-1.214;2023-03-14T08:57:50;100212.57;;;26.19;74.80
47983;BME280;33751;50.816;-1.214;2023-03-14T09:00:18;100228.40;;;26.09;75.34
47983;BME280;33751;50.816;-1.214;2023-03-14T09:02:45;100235.07;;;25.82;74.90
47983;BME280;33751;50.816;-1.214;2023-03-14T09:05:13;100243.03;;;25.69;75.36
47983;BME280;33751;50.816;-1.214;2023-03-14T09:07:41;100249.69;;;25.54;76.61
47983;BME280;33751;50.816;-1.214;2023-03-14T09:10:10;100261.74;;;25.17;76.05
47983;BME280;33751;50.816;-1.214;2023-03-14T09:12:37;100266.27;;;24.99;75.50
47983;BME280;33751;50.816;-1.214;2023-03-14T09:15:05;100268.83;;;25.12;75.80
47983;BME280;33751;50.816;-1.214;2023-03-14T09:17:33;100279.95;;;24.76;75.16
47983;BME280;33751;50.816;-1.214;2023-03-14T09:20:01;100287.47;;;24.92;75.21
47983;BME280;33751;50.816;-1.214;2023-03-14T09:22:28;100292.37;;;24.89;76.39
47983;BME280;33751;50.816;-1.214;2023-03-14T09:24:55;100303.57;;;24.43;75.75
47983;BME280;33751;50.816;-1.214;2023-03-14T09:27:22;100305.94;;;24.64;74.46
47983;BME280;33751;50.816;-1.214;2023-03-14T09:29:48;100311.89;;;24.61;75.27
47983;BME280;33751;50.816;-1.214;2023-03-14T09:32:15;100319.97;;;24.73;76.36
47983;BME280;33751;50.816;-1.214;2023-03-14T09:34:42;100329.08;;;24.58;75.41
47983;BME280;33751;50.816;-1.214;2023-03-14T09:37:09;100337.82;;;24.45;74.32
47983;BME280;33751;50.816;-1.214;2023-03-14T09:39:35;100345.22;;;24.11;74.84
47983;BME280;33751;50.816;-1.214;2023-03-14T09:42:05;100351.87;;;24.31;75.08
47983;BME280;33751;50.816;-1.214;2023-03-14T09:44:35;100354.95;;;24.07;75.94
47983;BME280;33751;50.816;-1.214;2023-03-14T09:47:06;100361.47;;;24.48;76.41
47983;BME280;33751;50.816;-1.214;2023-03-14T09:49:36;100366.05;;;24.16;76.83
47983;BME280;33751;50.816;-1.214;2023-03-14T09:52:10;100375.92;;;24.58;76.50
47983;BME280;33751;50.816;-1.214;2023-03-14T09:54:42;100383.52;;;24.28;76.05
47983;BME280;33751;50.816;-1.214;2023-03-14T09:57:14;100385.65;;;24.70;75.83
47983;BME280;33751;50.816;-1.214;2023-03-14T09:59:43;100398.55;;;24.09;76.33
47983;BME280;33751;50.816;-1.214;2023-03-14T10:02:16;100411.49;;;24.32;76.76
47983;BME280;33751;50.816;-1.214;2023-03-14T10:04:44;100422.31;;;23.68;77.63
47983;BME280;33751;50.816;-1.214;2023-03-14T10:07:14;100434.42;;;23.92;78.06
47983;BME280;33751;50.816;-1.214;2023-03-14T10:09:44;100442.16;;;24.25;78.34
47983;BME280;33751;50.816;-1.214;2023-03-14T10:12:11;100448.98;;;24.15;78.81
47983;BME280;33751;50.816;-1.214;2023-03-14T10:14:47;100452.04;;;24.40;79.42
47983;BME280;33751;50.816;-1.214;2023-03-14T10:17:16;100458.15;;;24.33;79.86
47983;BME280;33751;50.816;-1.214;2023-03-14T10:19:53;100466.93;;;24.96;80.04
47983;BME280;33751;50.816;-1.214;2023-03-14T10:22:21;100469.84;;;25.11;79.66
47983;BME280;33751;50.816;-1.214;2023-03-14T10:24:53;100469.10;;;25.11;79.84
47983;BME280;33751;50.816;-1.214;2023-03-14T10:27:22;100486.78;;;25.06;80.67
47983;BME280;33751;50.816;-1.214;2023-03-14T10:29:53;100499.43;;;24.81;82.08
47983;BME280;33751;50.816;-1.214;2023-03-14T10:32:21;100506.98;;;24.94;83.46
47983;BME280;33751;50.816;-1.214;2023-03-14T10:35:07;100514.64;;;24.38;84.78
47983;BME280;33751;50.816;-1.214;2023-03-14T10:37:33;100520.64;;;24.72;85.22
47983;BME280;33751;50.816;-1.214;2023-03-14T10:40:02;100523.85;;;24.69;85.02
47983;BME280;33751;50.816;-1.214;2023-03-14T10:42:30;100529.17;;;24.64;84.73
47983;BME280;33751;50.816;-1.214;2023-03-14T10:45:00;100535.79;;;24.98;84.60
47983;BME280;33751;50.816;-1.214;2023-03-14T10:47:28;100537.35;;;24.80;84.81
47983;BME280;33751;50.816;-1.214;2023-03-14T10:50:22;100544.89;;;25.09;85.10
47983;BME280;33751;50.816;-1.214;2023-03-14T10:52:49;100549.63;;;24.89;85.94
47983;BME280;33751;50.816;-1.214;2023-03-14T10:55:16;100555.67;;;25.05;86.73
47983;BME280;33751;50.816;-1.214;2023-03-14T10:57:44;100561.45;;;24.77;87.04
47983;BME280;33751;50.816;-1.214;2023-03-14T11:00:15;100563.23;;;25.03;87.34
47983;BME280;33751;50.816;-1.214;2023-03-14T11:02:53;100574.91;;;24.85;87.39
47983;BME280;33751;50.816;-1.214;2023-03-14T11:05:30;100582.95;;;24.71;87.38
47983;BME280;33751;50.816;-1.214;2023-03-14T11:08:01;100591.30;;;24.69;87.61
47983;BME280;33751;50.816;-1.214;2023-03-14T11:10:32;100606.64;;;24.80;87.93
47983;BME280;33751;50.816;-1.214;2023-03-14T11:13:09;100613.92;;;24.51;88.29
47983;BME280;33751;50.816;-1.214;2023-03-14T11:15:43;100619.42;;;24.71;88.56
47983;BME280;33751;50.816;-1.214;2023-03-14T11:18:44;100623.09;;;25.13;88.28
47983;BME280;33751;50.816;-1.214;2023-03-14T11:21:20;100636.85;;;24.70;88.19
47983;BME280;33751;50.816;-1.214;2023-03-14T11:23:56;100640.98;;;24.64;88.48
47983;BME280;33751;50.816;-1.214;2023-03-14T11:26:31;100648.91;;;24.54;88.91
47983;BME280;33751;50.816;-1.214;2023-03-14T11:29:11;100652.50;;;24.92;88.69
47983;BME280;33751;50.816;-1.214;2023-03-14T11:31:40;100658.70;;;24.95;88.73
47983;BME280;33751;50.816;-1.214;2023-03-14T11:34:16;100671.07;;;25.13;88.94
47983;BME280;33751;50.816;-1.214;2023-03-14T11:36:47;100674.12;;;24.99;89.40
47983;BME280;33751;50.816;-1.214;2023-03-14T11:39:19;100688.85;;;24.52;90.12
47983;BME280;33751;50.816;-1.214;2023-03-14T11:41:49;100699.68;;;24.74;90.34
47983;BME280;33751;50.816;-1.214;2023-03-14T11:44:19;100703.71;;;24.22;91.24
47983;BME280;33751;50.816;-1.214;2023-03-14T11:46:49;100704.10;;;24.63;90.84
47983;BME280;33751;50.816;-1.214;2023-03-14T11:49:28;100708.72;;;24.53;91.20
47983;BME280;33751;50.816;-1.214;2023-03-14T11:52:00;100718.33;;;24.50;91.37
47983;BME280;33751;50.816;-1.214;2023-03-14T11:54:34;100724.79;;;24.44;91.72
47983;BME280;33751;50.816;-1.214;2023-03-14T11:57:05;100729.63;;;24.43;91.69
47983;BME280;33751;50.816;-1.214;2023-03-14T11:59:46;100732.87;;;24.59;91.38
47983;BME280;33751;50.816;-1.214;2023-03-14T12:02:22;100738.39;;;24.59;91.35
47983;BME280;33751;50.816;-1.214;2023-03-14T12:04:59;100738.63;;;24.65;91.28
47983;BME280;33751;50.816;-1.214;2023-03-14T12:07:38;100738.25;;;24.14;91.22
47983;BME280;33751;50.816;-1.214;2023-03-14T12:10:06;100748.06;;;24.42;91.08
47983;BME280;33751;50.816;-1.214;2023-03-14T12:12:34;100750.07;;;24.19;91.60
47983;BME280;33751;50.816;-1.214;2023-03-14T12:15:03;100755.21;;;24.53;91.26
47983;BME280;33751;50.816;-1.214;2023-03-14T12:17:35;100758.55;;;24.53;90.99
47983;BME280;33751;50.816;-1.214;2023-03-14T12:20:06;100760.35;;;24.26;91.00
47983;BME280;33751;50.816;-1.214;2023-03-14T12:22:43;100762.43;;;24.66;90.61
47983;BME280;33751;50.816;-1.214;2023-03-14T12:25:16;100768.26;;;24.69;90.40
47983;BME280;33751;50.816;-1.214;2023-03-14T12:27:47;100771.33;;;24.13;90.55
47983;BME280;33751;50.816;-1.214;2023-03-14T12:30:22;100782.93;;;24.32;90.58
47983;BME280;33751;50.816;-1.214;2023-03-14T12:33:12;100789.91;;;24.05;90.64
47983;BME280;33751;50.816;-1.214;2023-03-14T12:35:40;100792.11;;;24.26;90.73
47983;BME280;33751;50.816;-1.214;2023-03-14T12:38:10;100793.23;;;24.45;91.01
47983;BME280;33751;50.816;-1.214;2023-03-14T12:40:46;100790.03;;;24.50;90.80
47983;BME280;33751;50.816;-1.214;2023-03-14T12:43:25;100791.87;;;24.21;90.79
47983;BME280;33751;50.816;-1.214;2023-03-14T12:46:15;100801.00;;;24.31;90.53
47983;BME280;33751;50.816;-1.214;2023-03-14T12:48:47;100801.58;;;24.32;90.36